sensor_id;sensor_type;location;lat;lon;timestamp;temperature;humidity
5576;DHT22;2810;50.134;8.626;2023-04-06T00:00:11;1.90;99.90
5576;DHT22;2810;50.134;8.626;2023-04-06T00:02:37;1.80;99.90
5576;DHT22;2810;50.134;8.626;2023-04-06T00:05:03;1.30;99.90
5576;DHT22;2810;50.134;8.626;2023-04-06T00:07:28;1.70;99.90
5576;DHT22;2810;50.134;8.626;2023-04-06T00:09:54;1.70;99.90
5576;DHT22;2810;50.134;8.626;2023-04-06T00:12:20;1.60;99.90
5576;DHT22;2810;50.134;8.626;2023-04-06T00:14:46;1.60;99.90
5576;DHT22;2810;50.134;8.626;2023-04-06T00:17:11;1.60;99.90
5576;DHT22;2810;50.134;8.626;2023-04-06T00:19:37;1.50;99.90
5576;DHT22;2810;50.134;8.626;2023-04-06T00:22:02;1.50;99.90
5576;DHT22;2810;50.134;8.626;2023-04-06T00:24:28;1.50;99.90
5576;DHT22;2810;50.134;8.626;2023-04-06T00:26:53;1.50;99.90
5576;DHT22;2810;50.134;8.626;2023-04-06T00:29:19;1.50;99.90
5576;DHT22;2810;50.134;8.626;2023-04-06T00:31:45;1.50;99.90
5576;DHT22;2810;50.134;8.626;2023-04-06T00:34:10;1.50;99.90
5576;DHT22;2810;50.134;8.626;2023-04-06T00:36:35;1.50;99.90
5576;DHT22;2810;50.134;8.626;2023-04-06T00:39:01;1.40;99.90
5576;DHT22;2810;50.134;8.626;2023-04-06T00:41:26;1.50;99.90
5576;DHT22;2810;50.134;8.626;2023-04-06T00:43:53;2.30;99.90
5576;DHT22;2810;50.134;8.626;2023-04-06T00:46:18;1.60;99.90
5576;DHT22;2810;50.134;8.626;2023-04-06T00:48:44;1.70;99.90
5576;DHT22;2810;50.134;8.626;2023-04-06T00:51:09;1.60;99.90
5576;DHT22;2810;50.134;8.626;2023-04-06T00:53:35;1.60;99.90
5576;DHT22;2810;50.134;8.626;2023-04-06T00:56:00;1.50;99.90
5576;DHT22;2810;50.134;8.626;2023-04-06T00:58:26;1.50;99.90
5576;DHT22;2810;50.134;8.626;2023-04-06T01:00:51;1.40;99.90
5576;DHT22;2810;50.134;8.626;2023-04-06T01:03:17;1.30;99.90
5576;DHT22;2810;50.134;8.626;2023-04-06T01:05:42;1.30;99.90
5576;DHT22;2810;50.134;8.626;2023-04-06T01:08:09;1.30;99.90
5576;DHT22;2810;50.134;8.626;2023-04-06T01:10:34;1.30;99.90
5576;DHT22;2810;50.134;8.626;2023-04-06T01:13:00;1.20;99.90
5576;DHT22;2810;50.134;8.626;2023-04-06T01:15:25;1.20;99.90
5576;DHT22;2810;50.134;8.626;2023-04-06T01:17:52;1.10;99.90
5576;DHT22;2810;50.134;8.626;2023-04-06T01:20:17;1.10;99.90
5576;DHT22;2810;50.134;8.626;2023-04-06T01:22:43;1.00;99.90
5576;DHT22;2810;50.134;8.626;2023-04-06T01:25:08;1.20;99.90
5576;DHT22;2810;50.134;8.626;2023-04-06T01:27:34;1.00;99.90
5576;DHT22;2810;50.134;8.626;2023-04-06T01:30:00;1.00;99.90
5576;DHT22;2810;50.134;8.626;2023-04-06T01:32:25;1.00;99.90
5576;DHT22;2810;50.134;8.626;2023-04-06T01:34:51;1.00;99.90
5576;DHT22;2810;50.134;8.626;2023-04-06T01:37:16;1.60;99.90
5576;DHT22;2810;50.134;8.626;2023-04-06T01:39:42;1.60;99.90
5576;DHT22;2810;50.134;8.626;2023-04-06T01:42:08;1.00;99.90
5576;DHT22;2810;50.134;8.626;2023-04-06T01:44:34;0.90;99.90
5576;DHT22;2810;50.134;8.626;2023-04-06T01:46:59;1.70;99.90
5576;DHT22;2810;50.134;8.626;2023-04-06T01:49:25;1.00;99.90
5576;DHT22;2810;50.134;8.626;2023-04-06T01:51:50;0.30;99.90
5576;DHT22;2810;50.134;8.626;2023-04-06T01:54:17;0.90;99.90
5576;DHT22;2810;50.134;8.626;2023-04-06T01:56:42;0.90;99.90
5576;DHT22;2810;50.134;8.626;2023-04-06T01:59:07;0.90;99.90
5576;DHT22;2810;50.134;8.626;2023-04-06T02:01:33;1.00;99.90
5576;DHT22;2810;50.134;8.626;2023-04-06T02:03:58;1.00;99.90
5576;DHT22;2810;50.134;8.626;2023-04-06T02:06:24;1.60;99.90
5576;DHT22;2810;50.134;8.626;2023-04-06T02:08:50;1.00;99.90
5576;DHT22;2810;50.134;8.626;2023-04-06T02:11:16;1.00;99.90
5576;DHT22;2810;50.134;8.626;2023-04-06T02:13:41;1.00;99.90
5576;DHT22;2810;50.134;8.626;2023-04-06T02:16:06;1.10;99.90
5576;DHT22;2810;50.134;8.626;2023-04-06T02:18:32;1.00;99.90
5576;DHT22;2810;50.134;8.626;2023-04-06T02:20:57;1.00;99.90
5576;DHT22;2810;50.134;8.626;2023-04-06T02:23:23;1.00;99.90
5576;DHT22;2810;50.134;8.626;2023-04-06T02:25:48;1.00;99.90
5576;DHT22;2810;50.134;8.626;2023-04-06T02:28:14;1.00;99.90
5576;DHT22;2810;50.134;8.626;2023-04-06T02:30:39;1.00;99.90
5576;DHT22;2810;50.134;8.626;2023-04-06T02:33:05;0.90;99.90
5576;DHT22;2810;50.134;8.626;2023-04-06T02:35:30;1.00;99.90
5576;DHT22;2810;50.134;8.626;2023-04-06T02:37:56;0.90;99.90
5576;DHT22;2810;50.134;8.626;2023-04-06T02:40:21;0.90;99.90
5576;DHT22;2810;50.134;8.626;2023-04-06T02:42:47;0.90;99.90
5576;DHT22;2810;50.134;8.626;2023-04-06T02:45:12;0.80;99.90
5576;DHT22;2810;50.134;8.626;2023-04-06T02:47:38;0.70;99.90
5576;DHT22;2810;50.134;8.626;2023-04-06T02:50:04;0.70;99.90
5576;DHT22;2810;50.134;8.626;2023-04-06T02:52:29;0.70;99.90
5576;DHT22;2810;50.134;8.626;2023-04-06T02:54:55;0.60;99.90
5576;DHT22;2810;50.134;8.626;2023-04-06T02:57:20;0.70;99.90
5576;DHT22;2810;50.134;8.626;2023-04-06T02:59:46;0.70;99.90
5576;DHT22;2810;50.134;8.626;2023-04-06T03:02:11;0.70;99.90
5576;DHT22;2810;50.134;8.626;2023-04-06T03:04:37;1.10;99.90
5576;DHT22;2810;50.134;8.626;2023-04-06T03:07:02;0.60;99.90
5576;DHT22;2810;50.134;8.626;2023-04-06T03:09:28;0.60;99.90
5576;DHT22;2810;50.134;8.626;2023-04-06T03:11:53;0.50;99.90
5576;DHT22;2810;50.134;8.626;2023-04-06T03:14:18;0.50;99.90
5576;DHT22;2810;50.134;8.626;2023-04-06T03:16:47;0.10;99.90
5576;DHT22;2810;50.134;8.626;2023-04-06T03:19:13;0.50;99.90
5576;DHT22;2810;50.134;8.626;2023-04-06T03:21:38;0.50;99.90
5576;DHT22;2810;50.134;8.626;2023-04-06T03:24:04;0.60;99.90
5576;DHT22;2810;50.134;8.626;2023-04-06T03:26:30;0.60;99.90
5576;DHT22;2810;50.134;8.626;2023-04-06T03:28:56;0.60;99.90
5576;DHT22;2810;50.134;8.626;2023-04-06T03:31:21;0.50;99.90
5576;DHT22;2810;50.134;8.626;2023-04-06T03:33:46;0.50;99.90
5576;DHT22;2810;50.134;8.626;2023-04-06T03:36:12;0.50;99.90
5576;DHT22;2810;50.134;8.626;2023-04-06T03:38:37;0.50;99.90
5576;DHT22;2810;50.134;8.626;2023-04-06T03:41:03;0.50;99.90
5576;DHT22;2810;50.134;8.626;2023-04-06T03:43:28;0.80;99.90
5576;DHT22;2810;50.134;8.626;2023-04-06T03:45:54;0.50;99.90
5576;DHT22;2810;50.134;8.626;2023-04-06T03:48:19;0.40;99.90
5576;DHT22;2810;50.134;8.626;2023-04-06T03:50:45;0.50;99.90
5576;DHT22;2810;50.134;8.626;2023-04-06T03:53:10;0.50;99.90
5576;DHT22;2810;50.134;8.626;2023-04-06T03:55:36;0.40;99.90
5576;DHT22;2810;50.134;8.626;2023-04-06T03:58:01;0.50;99.90
5576;DHT22;2810;50.134;8.626;2023-04-06T04:00:27;0.50;99.90
5576;DHT22;2810;50.134;8.626;2023-04-06T04:02:53;0.70;99.90
5576;DHT22;2810;50.134;8.626;2023-04-06T04:05:18;1.10;99.90
5576;DHT22;2810;50.134;8.626;2023-04-06T04:07:44;0.40;99.90
5576;DHT22;2810;50.134;8.626;2023-04-06T04:10:09;0.40;99.90
5576;DHT22;2810;50.134;8.626;2023-04-06T04:12:34;0.50;99.90
5576;DHT22;2810;50.134;8.626;2023-04-06T04:15:00;0.50;99.90
5576;DHT22;2810;50.134;8.626;2023-04-06T04:17:25;0.20;99.90
5576;DHT22;2810;50.134;8.626;2023-04-06T04:19:51;0.40;99.90
5576;DHT22;2810;50.134;8.626;2023-04-06T04:22:16;0.40;99.90
5576;DHT22;2810;50.134;8.626;2023-04-06T04:24:42;0.40;99.90
5576;DHT22;2810;50.134;8.626;2023-04-06T04:27:07;0.70;99.90
5576;DHT22;2810;50.134;8.626;2023-04-06T04:29:33;0.30;99.90
5576;DHT22;2810;50.134;8.626;2023-04-06T04:31:58;0.30;99.90
5576;DHT22;2810;50.134;8.626;2023-04-06T04:34:24;0.30;99.90
5576;DHT22;2810;50.134;8.626;2023-04-06T04:36:50;0.30;99.90
5576;DHT22;2810;50.134;8.626;2023-04-06T04:39:16;0.40;99.90
5576;DHT22;2810;50.134;8.626;2023-04-06T04:41:41;0.40;99.90
5576;DHT22;2810;50.134;8.626;2023-04-06T04:44:07;0.40;99.90
5576;DHT22;2810;50.134;8.626;2023-04-06T04:46:32;0.40;99.90
5576;DHT22;2810;50.134;8.626;2023-04-06T04:48:57;0.40;99.90
5576;DHT22;2810;50.134;8.626;2023-04-06T04:51:23;0.40;99.90
5576;DHT22;2810;50.134;8.626;2023-04-06T04:53:49;0.30;99.90
5576;DHT22;2810;50.134;8.626;2023-04-06T04:56:15;0.30;99.90
5576;DHT22;2810;50.134;8.626;2023-04-06T04:58:40;0.30;99.90
5576;DHT22;2810;50.134;8.626;2023-04-06T05:01:06;0.30;99.90
5576;DHT22;2810;50.134;8.626;2023-04-06T05:03:32;0.40;99.90
5576;DHT22;2810;50.134;8.626;2023-04-06T05:05:57;0.40;99.90
5576;DHT22;2810;50.134;8.626;2023-04-06T05:08:23;0.50;99.90
5576;DHT22;2810;50.134;8.626;2023-04-06T05:10:48;0.90;99.90
5576;DHT22;2810;50.134;8.626;2023-04-06T05:13:14;0.60;99.90
5576;DHT22;2810;50.134;8.626;2023-04-06T05:15:40;0.60;99.90
5576;DHT22;2810;50.134;8.626;2023-04-06T05:18:06;0.60;99.90
5576;DHT22;2810;50.134;8.626;2023-04-06T05:20:32;0.60;99.90
5576;DHT22;2810;50.134;8.626;2023-04-06T05:22:57;1.30;99.90
5576;DHT22;2810;50.134;8.626;2023-04-06T05:25:23;0.60;99.90
5576;DHT22;2810;50.134;8.626;2023-04-06T05:27:48;0.70;99.90
5576;DHT22;2810;50.134;8.626;2023-04-06T05:30:14;0.70;99.90
5576;DHT22;2810;50.134;8.626;2023-04-06T05:32:40;0.80;99.90
5576;DHT22;2810;50.134;8.626;2023-04-06T05:35:05;0.90;99.90
5576;DHT22;2810;50.134;8.626;2023-04-06T05:37:31;1.00;99.90
5576;DHT22;2810;50.134;8.626;2023-04-06T05:39:56;1.10;99.90
5576;DHT22;2810;50.134;8.626;2023-04-06T05:42:22;1.10;99.90
5576;DHT22;2810;50.134;8.626;2023-04-06T05:44:47;1.20;99.90
5576;DHT22;2810;50.134;8.626;2023-04-06T05:47:13;1.30;99.90
5576;DHT22;2810;50.134;8.626;2023-04-06T05:49:38;1.30;99.90
5576;DHT22;2810;50.134;8.626;2023-04-06T05:52:04;1.40;99.90
5576;DHT22;2810;50.134;8.626;2023-04-06T05:54:29;1.50;99.90
5576;DHT22;2810;50.134;8.626;2023-04-06T05:56:55;1.80;99.90
5576;DHT22;2810;50.134;8.626;2023-04-06T05:59:20;1.80;99.90
5576;DHT22;2810;50.134;8.626;2023-04-06T06:01:46;1.90;99.90
5576;DHT22;2810;50.134;8.626;2023-04-06T06:04:11;2.00;99.90
5576;DHT22;2810;50.134;8.626;2023-04-06T06:06:36;2.00;99.90
5576;DHT22;2810;50.134;8.626;2023-04-06T06:09:02;2.20;99.90
5576;DHT22;2810;50.134;8.626;2023-04-06T06:11:29;2.20;99.90
5576;DHT22;2810;50.134;8.626;2023-04-06T06:13:55;2.30;99.90
5576;DHT22;2810;50.134;8.626;2023-04-06T06:16:21;2.40;99.90
5576;DHT22;2810;50.134;8.626;2023-04-06T06:18:46;2.60;99.90
5576;DHT22;2810;50.134;8.626;2023-04-06T06:21:12;2.80;99.90
5576;DHT22;2810;50.134;8.626;2023-04-06T06:23:38;3.10;99.90
5576;DHT22;2810;50.134;8.626;2023-04-06T06:26:03;3.30;99.90
5576;DHT22;2810;50.134;8.626;2023-04-06T06:28:29;4.40;99.90
5576;DHT22;2810;50.134;8.626;2023-04-06T06:30:55;4.70;99.90
5576;DHT22;2810;50.134;8.626;2023-04-06T06:33:20;5.70;99.90
5576;DHT22;2810;50.134;8.626;2023-04-06T06:35:46;6.60;99.90
5576;DHT22;2810;50.134;8.626;2023-04-06T06:38:11;7.40;99.90
5576;DHT22;2810;50.134;8.626;2023-04-06T06:40:37;8.20;99.90
5576;DHT22;2810;50.134;8.626;2023-04-06T06:43:02;9.20;99.90
5576;DHT22;2810;50.134;8.626;2023-04-06T06:45:28;9.50;99.90
5576;DHT22;2810;50.134;8.626;2023-04-06T06:47:54;9.70;99.90
5576;DHT22;2810;50.134;8.626;2023-04-06T06:50:20;10.10;98.70
5576;DHT22;2810;50.134;8.626;2023-04-06T06:52:46;10.40;97.70
5576;DHT22;2810;50.134;8.626;2023-04-06T06:55:11;10.80;96.60
5576;DHT22;2810;50.134;8.626;2023-04-06T06:57:37;11.00;95.00
5576;DHT22;2810;50.134;8.626;2023-04-06T07:00:03;11.40;94.20
5576;DHT22;2810;50.134;8.626;2023-04-06T07:02:30;11.90;91.90
5576;DHT22;2810;50.134;8.626;2023-04-06T07:04:56;12.20;91.00
5576;DHT22;2810;50.134;8.626;2023-04-06T07:07:21;12.20;89.60
5576;DHT22;2810;50.134;8.626;2023-04-06T07:09:46;12.20;88.20
5576;DHT22;2810;50.134;8.626;2023-04-06T07:12:12;12.70;85.30
5576;DHT22;2810;50.134;8.626;2023-04-06T07:14:37;13.10;82.90
5576;DHT22;2810;50.134;8.626;2023-04-06T07:17:03;13.60;77.30
5576;DHT22;2810;50.134;8.626;2023-04-06T07:19:28;13.80;75.30
5576;DHT22;2810;50.134;8.626;2023-04-06T07:21:54;14.10;71.80
5576;DHT22;2810;50.134;8.626;2023-04-06T07:24:19;14.30;72.60
5576;DHT22;2810;50.134;8.626;2023-04-06T07:26:45;14.40;71.80
5576;DHT22;2810;50.134;8.626;2023-04-06T07:29:11;15.20;69.50
5576;DHT22;2810;50.134;8.626;2023-04-06T07:31:37;15.00;66.60
5576;DHT22;2810;50.134;8.626;2023-04-06T07:34:03;15.30;65.70
5576;DHT22;2810;50.134;8.626;2023-04-06T07:36:29;15.40;61.10
5576;DHT22;2810;50.134;8.626;2023-04-06T07:38:54;15.50;59.40
5576;DHT22;2810;50.134;8.626;2023-04-06T07:41:20;15.20;57.60
5576;DHT22;2810;50.134;8.626;2023-04-06T07:43:45;15.30;58.20
5576;DHT22;2810;50.134;8.626;2023-04-06T07:46:11;15.40;58.50
5576;DHT22;2810;50.134;8.626;2023-04-06T07:48:36;15.70;57.00
5576;DHT22;2810;50.134;8.626;2023-04-06T07:51:03;16.00;56.40
5576;DHT22;2810;50.134;8.626;2023-04-06T07:53:29;16.00;56.20
5576;DHT22;2810;50.134;8.626;2023-04-06T07:55:54;15.70;55.40
5576;DHT22;2810;50.134;8.626;2023-04-06T07:58:20;15.50;54.70
5576;DHT22;2810;50.134;8.626;2023-04-06T08:00:46;15.70;53.70
5576;DHT22;2810;50.134;8.626;2023-04-06T08:03:12;15.70;53.00
5576;DHT22;2810;50.134;8.626;2023-04-06T08:05:37;16.20;54.10
5576;DHT22;2810;50.134;8.626;2023-04-06T08:08:03;16.00;54.10
5576;DHT22;2810;50.134;8.626;2023-04-06T08:10:28;16.10;53.00
5576;DHT22;2810;50.134;8.626;2023-04-06T08:12:54;16.40;51.40
5576;DHT22;2810;50.134;8.626;2023-04-06T08:15:19;16.30;52.90
5576;DHT22;2810;50.134;8.626;2023-04-06T08:17:45;16.50;52.50
5576;DHT22;2810;50.134;8.626;2023-04-06T08:20:10;16.70;52.00
5576;DHT22;2810;50.134;8.626;2023-04-06T08:22:36;16.50;50.80
5576;DHT22;2810;50.134;8.626;2023-04-06T08:25:01;16.80;52.20
5576;DHT22;2810;50.134;8.626;2023-04-06T08:27:27;16.40;50.80
5576;DHT22;2810;50.134;8.626;2023-04-06T08:29:52;16.80;50.80
5576;DHT22;2810;50.134;8.626;2023-04-06T08:32:17;17.20;50.40
5576;DHT22;2810;50.134;8.626;2023-04-06T08:34:43;17.80;49.70
5576;DHT22;2810;50.134;8.626;2023-04-06T08:37:08;17.90;47.60
5576;DHT22;2810;50.134;8.626;2023-04-06T08:39:34;17.40;46.70
5576;DHT22;2810;50.134;8.626;2023-04-06T08:42:00;17.40;47.60
5576;DHT22;2810;50.134;8.626;2023-04-06T08:44:28;17.20;48.60
5576;DHT22;2810;50.134;8.626;2023-04-06T08:46:54;17.90;47.50
5576;DHT22;2810;50.134;8.626;2023-04-06T08:49:19;16.80;47.20
5576;DHT22;2810;50.134;8.626;2023-04-06T08:51:45;16.90;48.70
5576;DHT22;2810;50.134;8.626;2023-04-06T08:54:11;17.20;47.10
5576;DHT22;2810;50.134;8.626;2023-04-06T08:56:37;17.70;47.30
5576;DHT22;2810;50.134;8.626;2023-04-06T08:59:03;18.30;46.20
5576;DHT22;2810;50.134;8.626;2023-04-06T09:01:29;18.40;45.60
5576;DHT22;2810;50.134;8.626;2023-04-06T09:03:57;18.10;45.80
5576;DHT22;2810;50.134;8.626;2023-04-06T09:06:22;18.20;46.40
5576;DHT22;2810;50.134;8.626;2023-04-06T09:08:48;18.20;46.30
5576;DHT22;2810;50.134;8.626;2023-04-06T09:11:14;18.30;45.20
5576;DHT22;2810;50.134;8.626;2023-04-06T09:13:46;18.50;44.30
5576;DHT22;2810;50.134;8.626;2023-04-06T09:16:12;19.00;45.70
5576;DHT22;2810;50.134;8.626;2023-04-06T09:18:38;19.30;44.90
5576;DHT22;2810;50.134;8.626;2023-04-06T09:21:05;19.20;45.20
5576;DHT22;2810;50.134;8.626;2023-04-06T09:23:31;18.90;45.50
5576;DHT22;2810;50.134;8.626;2023-04-06T09:28:49;19.00;44.70
5576;DHT22;2810;50.134;8.626;2023-04-06T09:31:16;18.60;45.40
5576;DHT22;2810;50.134;8.626;2023-04-06T09:33:42;18.80;45.40
5576;DHT22;2810;50.134;8.626;2023-04-06T09:36:08;18.70;45.60
5576;DHT22;2810;50.134;8.626;2023-04-06T09:38:36;19.00;44.70
5576;DHT22;2810;50.134;8.626;2023-04-06T09:41:02;19.50;45.60
5576;DHT22;2810;50.134;8.626;2023-04-06T09:43:28;18.90;44.80
5576;DHT22;2810;50.134;8.626;2023-04-06T09:45:53;18.80;45.40
5576;DHT22;2810;50.134;8.626;2023-04-06T09:48:20;18.40;45.40
5576;DHT22;2810;50.134;8.626;2023-04-06T09:50:49;18.50;46.70
5576;DHT22;2810;50.134;8.626;2023-04-06T09:53:19;18.90;45.70
5576;DHT22;2810;50.134;8.626;2023-04-06T09:55:45;19.00;44.40
5576;DHT22;2810;50.134;8.626;2023-04-06T09:58:17;19.30;45.60
5576;DHT22;2810;50.134;8.626;2023-04-06T10:00:49;19.30;42.80
5576;DHT22;2810;50.134;8.626;2023-04-06T10:05:57;18.90;45.70
5576;DHT22;2810;50.134;8.626;2023-04-06T10:08:26;19.30;44.70
5576;DHT22;2810;50.134;8.626;2023-04-06T10:10:53;19.70;44.10
5576;DHT22;2810;50.134;8.626;2023-04-06T10:13:19;19.60;43.70
5576;DHT22;2810;50.134;8.626;2023-04-06T10:15:44;20.10;43.70
5576;DHT22;2810;50.134;8.626;2023-04-06T10:18:10;20.00;44.20
5576;DHT22;2810;50.134;8.626;2023-04-06T10:20:38;20.20;43.70
5576;DHT22;2810;50.134;8.626;2023-04-06T10:23:06;20.40;43.30
5576;DHT22;2810;50.134;8.626;2023-04-06T10:25:33;20.40;43.90
5576;DHT22;2810;50.134;8.626;2023-04-06T10:27:59;20.40;43.50
5576;DHT22;2810;50.134;8.626;2023-04-06T10:30:25;20.50;42.00
5576;DHT22;2810;50.134;8.626;2023-04-06T10:32:51;20.50;43.60
5576;DHT22;2810;50.134;8.626;2023-04-06T10:35:17;21.00;43.80
5576;DHT22;2810;50.134;8.626;2023-04-06T10:37:46;21.30;41.50
5576;DHT22;2810;50.134;8.626;2023-04-06T10:40:21;21.20;43.60
5576;DHT22;2810;50.134;8.626;2023-04-06T10:42:47;21.10;41.80
5576;DHT22;2810;50.134;8.626;2023-04-06T10:45:19;20.40;42.50
5576;DHT22;2810;50.134;8.626;2023-04-06T10:47:45;20.00;42.30
5576;DHT22;2810;50.134;8.626;2023-04-06T10:50:11;19.90;43.00
5576;DHT22;2810;50.134;8.626;2023-04-06T10:52:39;19.70;43.40
5576;DHT22;2810;50.134;8.626;2023-04-06T10:55:04;19.40;42.20
5576;DHT22;2810;50.134;8.626;2023-04-06T10:57:31;19.40;42.40
5576;DHT22;2810;50.134;8.626;2023-04-06T10:59:58;19.40;43.50
5576;DHT22;2810;50.134;8.626;2023-04-06T11:02:23;19.70;43.50
5576;DHT22;2810;50.134;8.626;2023-04-06T11:04:55;19.70;43.40
5576;DHT22;2810;50.134;8.626;2023-04-06T11:07:25;20.40;42.80
5576;DHT22;2810;50.134;8.626;2023-04-06T11:09:51;20.10;41.40
5576;DHT22;2810;50.134;8.626;2023-04-06T11:12:24;20.30;41.90
5576;DHT22;2810;50.134;8.626;2023-04-06T11:15:08;19.60;43.00
5576;DHT22;2810;50.134;8.626;2023-04-06T11:17:34;20.40;42.60
5576;DHT22;2810;50.134;8.626;2023-04-06T11:20:01;20.80;42.40
5576;DHT22;2810;50.134;8.626;2023-04-06T11:22:27;21.10;42.00
5576;DHT22;2810;50.134;8.626;2023-04-06T11:25:04;21.00;40.90
5576;DHT22;2810;50.134;8.626;2023-04-06T11:27:29;20.90;42.00
5576;DHT22;2810;50.134;8.626;2023-04-06T11:29:58;19.90;42.00
5576;DHT22;2810;50.134;8.626;2023-04-06T11:32:23;19.00;43.30
5576;DHT22;2810;50.134;8.626;2023-04-06T11:34:49;18.00;43.50
5576;DHT22;2810;50.134;8.626;2023-04-06T11:37:15;17.70;45.40
5576;DHT22;2810;50.134;8.626;2023-04-06T11:39:50;17.90;45.40
5576;DHT22;2810;50.134;8.626;2023-04-06T11:42:22;18.20;44.90
5576;DHT22;2810;50.134;8.626;2023-04-06T11:44:49;17.90;44.70
5576;DHT22;2810;50.134;8.626;2023-04-06T11:47:15;18.00;45.70
5576;DHT22;2810;50.134;8.626;2023-04-06T11:49:41;17.50;45.00
5576;DHT22;2810;50.134;8.626;2023-04-06T11:52:17;17.20;46.00
5576;DHT22;2810;50.134;8.626;2023-04-06T11:54:43;17.00;46.40
5576;DHT22;2810;50.134;8.626;2023-04-06T11:57:08;17.00;45.80
5576;DHT22;2810;50.134;8.626;2023-04-06T11:59:34;16.90;46.30
5576;DHT22;2810;50.134;8.626;2023-04-06T12:02:00;17.10;47.20
5576;DHT22;2810;50.134;8.626;2023-04-06T12:04:26;17.00;47.10
5576;DHT22;2810;50.134;8.626;2023-04-06T12:06:51;16.80;47.10
5576;DHT22;2810;50.134;8.626;2023-04-06T12:09:17;16.90;48.70
5576;DHT22;2810;50.134;8.626;2023-04-06T12:11:43;16.50;47.80
5576;DHT22;2810;50.134;8.626;2023-04-06T12:14:08;16.40;48.20
5576;DHT22;2810;50.134;8.626;2023-04-06T12:16:34;16.60;47.90
5576;DHT22;2810;50.134;8.626;2023-04-06T12:19:00;16.60;46.80
5576;DHT22;2810;50.134;8.626;2023-04-06T12:21:29;16.90;46.30
5576;DHT22;2810;50.134;8.626;2023-04-06T12:23:56;17.10;46.10
5576;DHT22;2810;50.134;8.626;2023-04-06T12:26:22;17.20;46.50
5576;DHT22;2810;50.134;8.626;2023-04-06T12:28:47;16.70;45.50
5576;DHT22;2810;50.134;8.626;2023-04-06T12:31:20;16.50;45.70
5576;DHT22;2810;50.134;8.626;2023-04-06T12:33:47;16.60;46.20
5576;DHT22;2810;50.134;8.626;2023-04-06T12:36:13;16.70;46.00
5576;DHT22;2810;50.134;8.626;2023-04-06T12:38:39;16.70;45.40
5576;DHT22;2810;50.134;8.626;2023-04-06T12:41:06;16.60;45.30
5576;DHT22;2810;50.134;8.626;2023-04-06T12:43:31;16.70;45.30
5576;DHT22;2810;50.134;8.626;2023-04-06T12:45:57;17.40;45.70
5576;DHT22;2810;50.134;8.626;2023-04-06T12:48:22;16.90;44.10
5576;DHT22;2810;50.134;8.626;2023-04-06T12:50:57;16.70;44.70
5576;DHT22;2810;50.134;8.626;2023-04-06T12:53:23;16.70;47.20
5576;DHT22;2810;50.134;8.626;2023-04-06T12:55:48;16.80;44.40
5576;DHT22;2810;50.134;8.626;2023-04-06T12:58:14;16.80;46.70
5576;DHT22;2810;50.134;8.626;2023-04-06T13:00:40;16.50;44.40
5576;DHT22;2810;50.134;8.626;2023-04-06T13:03:05;16.30;45.50
5576;DHT22;2810;50.134;8.626;2023-04-06T13:05:31;16.00;45.20
5576;DHT22;2810;50.134;8.626;2023-04-06T13:07:56;15.80;46.50
5576;DHT22;2810;50.134;8.626;2023-04-06T13:10:22;16.20;47.30
5576;DHT22;2810;50.134;8.626;2023-04-06T13:12:47;15.60;46.80
5576;DHT22;2810;50.134;8.626;2023-04-06T13:15:13;15.40;46.20
5576;DHT22;2810;50.134;8.626;2023-04-06T13:17:38;15.40;45.30
5576;DHT22;2810;50.134;8.626;2023-04-06T13:20:04;15.40;45.90
5576;DHT22;2810;50.134;8.626;2023-04-06T13:22:31;15.50;46.90
5576;DHT22;2810;50.134;8.626;2023-04-06T13:24:56;15.50;46.70
5576;DHT22;2810;50.134;8.626;2023-04-06T13:27:22;15.30;46.10
5576;DHT22;2810;50.134;8.626;2023-04-06T13:29:47;15.30;47.10
5576;DHT22;2810;50.134;8.626;2023-04-06T13:32:12;15.40;46.60
5576;DHT22;2810;50.134;8.626;2023-04-06T13:34:38;15.40;46.60
5576;DHT22;2810;50.134;8.626;2023-04-06T13:37:03;15.40;46.90
5576;DHT22;2810;50.134;8.626;2023-04-06T13:39:29;15.60;47.80
5576;DHT22;2810;50.134;8.626;2023-04-06T13:41:55;15.40;48.30
5576;DHT22;2810;50.134;8.626;2023-04-06T13:44:21;15.40;48.20
5576;DHT22;2810;50.134;8.626;2023-04-06T13:46:47;15.50;47.30
5576;DHT22;2810;50.134;8.626;2023-04-06T13:49:13;16.10;47.40
5576;DHT22;2810;50.134;8.626;2023-04-06T13:51:38;15.60;46.80
5576;DHT22;2810;50.134;8.626;2023-04-06T13:54:04;15.60;47.50
5576;DHT22;2810;50.134;8.626;2023-04-06T13:56:29;15.80;46.50
5576;DHT22;2810;50.134;8.626;2023-04-06T13:58:55;15.80;47.00
5576;DHT22;2810;50.134;8.626;2023-04-06T14:01:21;15.90;47.30
5576;DHT22;2810;50.134;8.626;2023-04-06T14:03:47;16.20;47.50
5576;DHT22;2810;50.134;8.626;2023-04-06T14:06:13;16.30;48.00
5576;DHT22;2810;50.134;8.626;2023-04-06T14:08:38;16.50;46.40
5576;DHT22;2810;50.134;8.626;2023-04-06T14:11:04;16.10;45.90
5576;DHT22;2810;50.134;8.626;2023-04-06T14:13:29;16.10;47.10
5576;DHT22;2810;50.134;8.626;2023-04-06T14:15:55;16.10;46.90
5576;DHT22;2810;50.134;8.626;2023-04-06T14:18:21;16.10;46.50
5576;DHT22;2810;50.134;8.626;2023-04-06T14:20:54;16.10;46.30
5576;DHT22;2810;50.134;8.626;2023-04-06T14:23:20;16.00;47.60
5576;DHT22;2810;50.134;8.626;2023-04-06T14:25:46;15.80;46.70
5576;DHT22;2810;50.134;8.626;2023-04-06T14:28:12;15.50;46.80
5576;DHT22;2810;50.134;8.626;2023-04-06T14:30:37;15.20;46.90
5576;DHT22;2810;50.134;8.626;2023-04-06T14:33:03;15.00;47.20
5576;DHT22;2810;50.134;8.626;2023-04-06T14:35:28;15.00;47.60
5576;DHT22;2810;50.134;8.626;2023-04-06T14:37:57;15.00;47.20
5576;DHT22;2810;50.134;8.626;2023-04-06T14:40:23;15.00;48.80
5576;DHT22;2810;50.134;8.626;2023-04-06T14:42:49;14.90;47.90
5576;DHT22;2810;50.134;8.626;2023-04-06T14:45:16;14.90;47.90
5576;DHT22;2810;50.134;8.626;2023-04-06T14:47:44;15.10;48.20
5576;DHT22;2810;50.134;8.626;2023-04-06T14:50:10;15.00;47.70
5576;DHT22;2810;50.134;8.626;2023-04-06T14:52:36;14.90;48.00
5576;DHT22;2810;50.134;8.626;2023-04-06T14:55:01;15.30;47.90
5576;DHT22;2810;50.134;8.626;2023-04-06T14:57:27;14.80;47.90
5576;DHT22;2810;50.134;8.626;2023-04-06T14:59:53;14.90;48.10
5576;DHT22;2810;50.134;8.626;2023-04-06T15:02:19;14.80;48.80
5576;DHT22;2810;50.134;8.626;2023-04-06T15:04:44;14.60;48.10
5576;DHT22;2810;50.134;8.626;2023-04-06T15:07:11;14.50;47.70
5576;DHT22;2810;50.134;8.626;2023-04-06T15:09:37;14.50;47.90
5576;DHT22;2810;50.134;8.626;2023-04-06T15:12:02;14.40;47.80
5576;DHT22;2810;50.134;8.626;2023-04-06T15:14:28;14.30;47.60
5576;DHT22;2810;50.134;8.626;2023-04-06T15:16:53;14.30;48.20
5576;DHT22;2810;50.134;8.626;2023-04-06T15:19:19;14.20;48.30
5576;DHT22;2810;50.134;8.626;2023-04-06T15:21:44;14.30;49.20
5576;DHT22;2810;50.134;8.626;2023-04-06T15:24:10;14.30;48.80
5576;DHT22;2810;50.134;8.626;2023-04-06T15:26:35;14.30;48.40
5576;DHT22;2810;50.134;8.626;2023-04-06T15:29:02;14.30;48.40
5576;DHT22;2810;50.134;8.626;2023-04-06T15:31:28;14.20;47.90
5576;DHT22;2810;50.134;8.626;2023-04-06T15:33:54;14.20;48.00
5576;DHT22;2810;50.134;8.626;2023-04-06T15:36:24;14.30;48.50
5576;DHT22;2810;50.134;8.626;2023-04-06T15:38:51;14.20;48.60
5576;DHT22;2810;50.134;8.626;2023-04-06T15:41:17;14.20;47.90
5576;DHT22;2810;50.134;8.626;2023-04-06T15:43:42;14.10;49.10
5576;DHT22;2810;50.134;8.626;2023-04-06T15:46:08;14.20;49.50
5576;DHT22;2810;50.134;8.626;2023-04-06T15:48:33;14.20;48.90
5576;DHT22;2810;50.134;8.626;2023-04-06T15:50:59;14.20;49.10
5576;DHT22;2810;50.134;8.626;2023-04-06T15:53:24;14.00;48.10
5576;DHT22;2810;50.134;8.626;2023-04-06T15:55:50;13.90;48.40
5576;DHT22;2810;50.134;8.626;2023-04-06T15:58:16;13.80;49.00
5576;DHT22;2810;50.134;8.626;2023-04-06T16:00:41;13.90;49.20
5576;DHT22;2810;50.134;8.626;2023-04-06T16:03:06;13.90;49.50
5576;DHT22;2810;50.134;8.626;2023-04-06T16:05:32;13.70;48.60